Time;durP1;ratioP1;P1;durP2;ratioP2;P2;SDS_P1;SDS_P2;PMS_P1;PMS_P2;Temp;Humidity;BMP_temperature;BMP_pressure;BME280_temperature;BME280_humidity;BME280_pressure;Samples;Min_cycle;Max_cycle;Signal;HPM_P1;HPM_P2
2021/06/13 00:01:27;;;;;;;1.05;0.95;;;23.80;49.70;;;27.44;34.08;101955.69;5136952;27;20483;-50
2021/06/13 00:03:52;;;;;;;2.20;1.10;;;23.80;49.70;;;27.43;34.21;101953.97;5155951;27;20053;-48
2021/06/13 00:06:18;;;;;;;1.77;1.23;;;23.80;49.70;;;27.40;33.97;101949.69;5155905;27;20051;-48
2021/06/13 00:08:44;;;;;;;1.23;1.10;;;23.80;49.70;;;27.41;34.20;101945.16;5155486;27;20084;-47
2021/06/13 00:11:13;;;;;;;1.17;1.08;;;23.80;49.80;;;27.39;34.05;101952.47;5155868;27;20115;-52
2021/06/13 00:13:42;;;;;;;1.05;0.93;;;23.80;49.80;;;27.39;34.15;101947.97;5155401;27;20559;-54
2021/06/13 00:16:08;;;;;;;1.45;1.13;;;23.70;49.70;;;27.39;33.98;101947.13;5155672;27;20491;-51
2021/06/13 00:18:35;;;;;;;1.55;1.00;;;23.70;49.70;;;27.37;34.07;101949.06;5155232;27;20405;-49
2021/06/13 00:21:02;;;;;;;1.10;1.00;;;23.70;49.80;;;27.37;34.20;101949.06;5155519;27;20503;-51
2021/06/13 00:23:28;;;;;;;1.10;1.00;;;23.70;49.80;;;27.39;34.10;101947.13;5155386;27;20102;-52
2021/06/13 00:25:54;;;;;;;0.93;0.93;;;23.70;49.80;;;27.35;34.00;101962.59;5155604;27;20058;-52
2021/06/13 00:28:20;;;;;;;2.50;1.50;;;23.70;49.80;;;27.38;34.13;101961.50;5155177;27;20084;-54
2021/06/13 00:30:46;;;;;;;1.38;1.10;;;23.70;50.30;;;27.35;34.12;101966.13;5155335;27;20125;-54
2021/06/13 00:33:12;;;;;;;1.40;0.90;;;23.70;49.80;;;27.32;34.08;101965.50;5155454;27;20107;-54
2021/06/13 00:35:38;;;;;;;1.30;1.00;;;23.70;49.80;;;27.33;34.14;101965.38;5155455;27;20447;-49
2021/06/13 00:38:06;;;;;;;1.10;1.00;;;23.70;49.80;;;27.32;34.18;101963.66;5155046;27;20042;-52
2021/06/13 00:40:32;;;;;;;1.40;1.30;;;23.70;49.90;;;27.33;34.27;101981.50;5155166;27;20038;-55
2021/06/13 00:43:00;;;;;;;1.35;0.90;;;23.70;49.90;;;27.32;34.24;101973.56;5136483;27;20043;-54
2021/06/13 00:45:27;;;;;;;1.60;1.10;;;23.70;49.90;;;27.28;34.17;101963.94;5136281;27;20052;-55
2021/06/13 00:47:54;;;;;;;1.80;0.98;;;23.70;49.90;;;27.26;34.16;101969.44;5154809;27;20499;-52
2021/06/13 00:50:41;;;;;;;1.27;1.10;;;23.70;49.90;;;27.28;33.98;101974.69;5155314;27;20046;-50
2021/06/13 00:53:09;;;;;;;1.42;1.00;;;23.70;49.90;;;27.27;34.22;101968.47;5136303;27;20046;-50
2021/06/13 00:55:39;;;;;;;1.20;1.10;;;23.60;49.90;;;27.25;34.34;101970.41;5136557;27;20133;-50
2021/06/13 00:58:05;;;;;;;1.48;1.10;;;23.60;49.90;;;27.27;34.09;101973.84;5134542;27;20055;-51
2021/06/13 01:00:33;;;;;;;0.90;0.90;;;23.60;49.90;;;27.27;34.08;101973.00;5136447;27;20053;-52
2021/06/13 01:03:00;;;;;;;0.90;0.85;;;23.60;49.90;;;27.25;34.01;101970.41;5136101;27;20089;-51
2021/06/13 01:05:27;;;;;;;1.15;1.05;;;23.60;49.90;;;27.24;34.41;101970.53;5154731;27;20043;-49
2021/06/13 01:08:33;;;;;;;0.95;0.90;;;23.60;50.00;;;27.21;34.40;101965.38;5154710;27;20051;-54
2021/06/13 01:11:12;;;;;;;1.20;1.10;;;23.60;50.00;;;27.21;34.25;101968.91;5154669;27;20083;-53
2021/06/13 01:14:06;;;;;;;1.73;1.13;;;23.60;50.00;;;27.20;34.33;101977.94;5154927;27;20050;-52
2021/06/13 01:16:53;;;;;;;1.75;1.00;;;23.60;50.00;;;27.18;34.13;101975.38;5118989;27;20054;-52
2021/06/13 01:19:22;;;;;;;1.73;1.25;;;23.60;50.50;;;27.21;34.38;101986.84;5135569;27;20153;-51
2021/06/13 01:22:26;;;;;;;1.38;0.93;;;23.60;50.00;;;27.17;34.32;101979.00;5154550;27;20090;-51
2021/06/13 01:25:23;;;;;;;1.25;1.02;;;23.50;50.00;;;27.16;34.30;101984.47;5136326;27;20078;-47
2021/06/13 01:28:26;;;;;;;1.48;1.38;;;23.60;50.00;;;27.15;34.30;101989.00;5136013;27;20046;-53
2021/06/13 01:30:55;;;;;;;1.10;1.00;;;23.50;50.00;;;27.12;34.10;101980.31;5133703;27;20393;-50
2021/06/13 01:33:22;;;;;;;1.95;1.27;;;23.50;50.00;;;27.15;34.26;101985.47;5135508;27;20480;-53
2021/06/13 01:35:50;;;;;;;1.20;1.10;;;23.50;50.00;;;27.12;34.22;101980.31;5154567;27;20047;-51
2021/06/13 01:38:18;;;;;;;1.67;0.95;;;23.50;50.00;;;27.14;34.25;101992.66;5134069;27;20050;-50
2021/06/13 01:40:45;;;;;;;1.60;1.27;;;23.50;50.10;;;27.12;34.17;101983.84;5117106;27;20047;-54
2021/06/13 01:43:13;;;;;;;0.95;0.93;;;23.50;50.10;;;27.11;34.30;101984.78;5135464;27;20475;-52
2021/06/13 01:45:41;;;;;;;0.82;0.82;;;23.50;50.10;;;27.08;34.33;101985.03;5136003;27;20042;-52
2021/06/13 01:48:11;;;;;;;1.15;1.05;;;23.50;50.10;;;27.11;34.46;101992.84;5117529;27;20082;-53
2021/06/13 01:50:39;;;;;;;;;;;23.50;50.10;;;27.18;33.95;101988.78;5122719;27;20034;-52
2021/06/13 01:53:12;;;;;;;0.98;0.88;;;23.50;50.20;;;27.14;34.33;101989.97;5121157;27;20352;-48
2021/06/13 01:55:40;;;;;;;0.90;0.90;;;23.50;50.20;;;27.10;34.35;101988.47;5139747;27;20042;-51
2021/06/13 01:58:07;;;;;;;1.50;1.10;;;23.50;50.20;;;27.05;34.35;101996.00;5158080;27;20456;-48
2021/06/13 02:00:54;;;;;;;1.05;0.95;;;23.50;50.20;;;27.07;34.35;102002.09;5125278;27;20043;-53
2021/06/13 02:03:23;;;;;;;1.63;1.05;;;23.40;50.10;;;27.07;34.25;102007.47;5121582;27;20104;-52
2021/06/13 02:06:26;;;;;;;1.40;1.17;;;23.40;50.20;;;27.05;34.32;102011.22;5128530;27;20051;-51
2021/06/13 02:08:55;;;;;;;1.75;1.40;;;23.40;50.20;;;27.02;34.45;101998.88;5121930;27;20050;-50
2021/06/13 02:11:23;;;;;;;1.15;1.05;;;23.40;50.20;;;27.01;34.33;102001.69;5157544;27;20046;-49
2021/06/13 02:13:51;;;;;;;1.48;0.80;;;23.40;50.20;;;27.03;34.38;101997.06;5137802;27;20047;-49
2021/06/13 02:16:25;;;;;;;1.08;1.00;;;23.40;50.20;;;27.02;34.62;101998.88;5138877;27;20039;-53
2021/06/13 02:18:52;;;;;;;1.23;1.10;;;23.40;50.30;;;27.02;34.50;102012.31;5137047;27;20126;-45
2021/06/13 02:21:19;;;;;;;1.02;1.00;;;23.30;50.20;;;26.97;34.48;102004.56;5121556;27;20047;-51
2021/06/13 02:23:46;;;;;;;1.02;0.90;;;23.40;50.30;;;26.98;34.47;102002.72;5121145;27;20054;-51
2021/06/13 02:26:14;;;;;;;1.10;1.00;;;23.30;50.20;;;26.96;34.42;102010.91;5138741;27;20051;-47
2021/06/13 02:28:46;;;;;;;1.17;1.00;;;23.40;50.30;;;26.94;34.74;102014.66;5157451;27;20091;-47
2021/06/13 02:31:14;;;;;;;1.20;0.90;;;23.30;50.20;;;26.96;34.52;102020.78;5139027;27;20143;-51
2021/06/13 02:33:44;;;;;;;0.90;0.90;;;23.30;50.30;;;26.95;34.51;102024.44;5138525;27;20043;-53
2021/06/13 02:36:13;;;;;;;1.05;0.98;;;23.40;50.40;;;26.94;34.45;102017.34;5121860;27;20042;-53
2021/06/13 02:38:55;;;;;;;1.13;1.02;;;23.30;50.30;;;26.94;34.62;102020.88;5123633;27;20051;-49
2021/06/13 02:41:23;;;;;;;1.40;1.10;;;23.30;50.30;;;26.91;34.58;102021.09;5138491;27;20043;-47
2021/06/13 02:43:51;;;;;;;1.08;1.00;;;23.30;50.30;;;26.93;34.49;102031.72;5138368;27;20046;-48
2021/06/13 02:46:19;;;;;;;1.30;1.20;;;23.30;50.30;;;26.93;34.53;102034.41;5138363;27;20179;-51
2021/06/13 02:48:45;;;;;;;1.80;1.10;;;23.30;50.30;;;26.92;34.46;102032.72;5138548;27;20043;-51
2021/06/13 02:51:14;;;;;;;1.20;1.10;;;23.30;50.40;;;26.90;34.59;102030.13;5156930;27;20039;-54
2021/06/13 02:53:44;;;;;;;1.55;1.35;;;23.30;50.30;;;26.89;34.82;102031.06;5121171;27;20522;-54
2021/06/13 02:56:29;;;;;;;0.90;0.90;;;23.30;50.30;;;26.88;34.55;102025.81;5139610;27;20046;-54
2021/06/13 02:59:05;;;;;;;1.60;1.10;;;23.30;50.40;;;26.90;34.43;102031.97;5120309;27;20043;-48
2021/06/13 03:01:33;;;;;;;1.23;1.13;;;23.30;50.40;;;26.89;34.55;102032.91;5138322;27;20054;-54
2021/06/13 03:04:01;;;;;;;1.30;1.13;;;23.30;50.30;;;26.90;34.57;102031.97;5137828;27;20043;-53
2021/06/13 03:06:30;;;;;;;1.58;1.35;;;23.30;50.40;;;26.91;34.63;102042.56;5119564;27;20043;-48
2021/06/13 03:08:57;;;;;;;1.25;1.10;;;23.30;50.40;;;26.90;34.39;102048.06;5138235;27;20148;-51
2021/06/13 03:11:25;;;;;;;2.03;1.35;;;23.30;50.40;;;26.86;34.64;102044.69;5156584;27;20142;-50
2021/06/13 03:13:53;;;;;;;1.30;1.10;;;23.20;50.30;;;26.86;34.61;102042.03;5137748;27;20046;-48
2021/06/13 03:16:20;;;;;;;1.63;1.20;;;23.30;50.40;;;26.85;34.47;102034.94;5120669;27;20142;-47
2021/06/13 03:18:50;;;;;;;1.00;1.00;;;23.30;50.40;;;26.87;34.53;102034.84;5138022;27;20046;-48
2021/06/13 03:21:18;;;;;;;1.30;1.00;;;23.30;50.40;;;26.86;34.71;102035.81;5156393;27;20142;-46
2021/06/13 03:23:47;;;;;;;1.25;1.10;;;23.20;50.30;;;26.88;34.48;102041.91;5137756;27;20047;-49
2021/06/13 03:26:15;;;;;;;1.00;1.00;;;23.20;50.40;;;26.82;34.66;102032.47;5138176;27;20061;-53
2021/06/13 03:28:44;;;;;;;1.08;1.00;;;23.20;50.30;;;26.85;34.62;102034.06;5118471;27;20454;-50
2021/06/13 03:31:14;;;;;;;1.30;1.20;;;23.20;50.30;;;26.84;34.57;102035.06;5120689;27;20142;-49
2021/06/13 03:33:43;;;;;;;1.25;1.00;;;23.20;50.30;;;26.84;34.63;102043.09;5118355;27;20043;-47
2021/06/13 03:36:14;;;;;;;1.00;1.00;;;23.20;50.30;;;26.85;34.59;102048.38;5120808;27;20096;-51
2021/06/13 03:38:45;;;;;;;1.40;1.30;;;23.20;50.40;;;26.85;34.56;102053.75;5120043;27;20407;-46
2021/06/13 03:41:18;;;;;;;1.35;1.23;;;23.20;50.30;;;26.85;34.65;102060.91;5121436;27;20043;-47
2021/06/13 03:43:46;;;;;;;1.38;1.00;;;23.20;50.30;;;26.84;34.56;102065.44;5156103;27;20054;-49
2021/06/13 03:46:13;;;;;;;1.50;1.10;;;23.20;50.30;;;26.83;34.52;102068.22;5137806;27;20042;-51
2021/06/13 03:48:44;;;;;;;1.30;1.02;;;23.20;50.40;;;26.86;34.52;102065.31;5156004;27;20058;-51
2021/06/13 03:51:14;;;;;;;1.67;1.00;;;23.20;50.40;;;26.82;34.51;102066.50;5137686;27;20439;-47
2021/06/13 03:53:55;;;;;;;1.20;1.10;;;23.20;50.30;;;26.85;34.45;102069.84;5138176;27;20099;-53
2021/06/13 03:56:23;;;;;;;;;;;23.20;50.30;;;26.92;34.30;102064.91;5156544;27;20445;-50
2021/06/13 03:58:50;;;;;;;1.38;1.10;;;23.20;50.40;;;26.89;34.53;102076.69;5135948;27;19915;-52
2021/06/13 04:01:19;;;;;;;2.53;1.30;;;23.20;50.30;;;26.86;34.49;102063.50;5137544;27;20049;-51
2021/06/13 04:03:52;;;;;;;1.02;0.93;;;23.20;50.30;;;26.85;34.44;102067.16;5155741;27;20050;-49
2021/06/13 04:06:24;;;;;;;1.42;0.90;;;23.20;50.30;;;26.83;34.58;102061.03;5155607;27;20103;-49
2021/06/13 04:08:53;;;;;;;1.40;1.15;;;23.20;50.30;;;26.82;34.49;102075.41;5137174;27;20100;-50
2021/06/13 04:11:23;;;;;;;1.50;1.00;;;23.20;50.30;;;26.80;34.43;102072.81;5154775;27;20043;-50
2021/06/13 04:13:50;;;;;;;1.20;1.10;;;23.20;50.30;;;26.82;34.52;102086.16;5137113;27;20043;-48
2021/06/13 04:16:22;;;;;;;1.65;1.20;;;23.20;50.40;;;26.79;34.54;102078.28;5156034;27;20475;-46
2021/06/13 04:18:49;;;;;;;1.30;1.10;;;23.20;50.40;;;26.82;34.49;102093.34;5136950;27;20047;-45
2021/06/13 04:21:17;;;;;;;1.38;1.10;;;23.20;50.40;;;26.82;34.62;102096.03;5136476;27;20049;-52
2021/06/13 04:23:46;;;;;;;1.30;1.20;;;23.20;50.30;;;26.78;34.45;102084.63;5119498;27;20049;-46
2021/06/13 04:26:17;;;;;;;1.20;1.10;;;23.20;50.40;;;26.78;34.54;102093.53;5136075;27;20082;-51
2021/06/13 04:28:45;;;;;;;1.65;1.27;;;23.20;50.40;;;26.78;34.55;102090.88;5155592;27;20050;-53
2021/06/13 04:31:14;;;;;;;1.77;1.48;;;23.20;50.30;;;26.75;34.48;102085.69;5155723;27;20074;-47
2021/06/13 04:33:48;;;;;;;1.90;1.38;;;23.20;50.40;;;26.78;34.36;102087.28;5155196;27;20047;-53
2021/06/13 04:36:19;;;;;;;2.05;1.20;;;23.20;50.30;;;26.82;34.50;102090.66;5155220;27;20050;-52
2021/06/13 04:38:45;;;;;;;1.73;1.02;;;23.20;50.30;;;26.80;34.52;102098.81;5136523;27;20070;-52
2021/06/13 04:41:12;;;;;;;1.52;1.20;;;23.20;50.30;;;26.81;34.54;102092.47;5155294;27;20057;-51
2021/06/13 04:43:39;;;;;;;1.45;1.30;;;23.20;50.30;;;26.79;34.41;102089.03;5155034;27;20049;-48
2021/06/13 04:46:09;;;;;;;1.30;1.05;;;23.20;50.30;;;26.81;34.48;102095.16;5155021;27;20100;-50
2021/06/13 04:48:37;;;;;;;1.55;1.20;;;23.20;50.30;;;26.79;34.50;102091.72;5154826;27;20070;-51
2021/06/13 04:51:08;;;;;;;1.30;1.20;;;23.20;50.30;;;26.80;34.53;102104.19;5154622;27;20086;-50
2021/06/13 04:53:59;;;;;;;1.38;1.10;;;23.20;50.30;;;26.80;34.39;102102.34;5154868;27;20066;-51
2021/06/13 04:57:03;;;;;;;1.50;1.15;;;23.20;50.30;;;26.77;34.46;102105.22;5149987;27;20125;-52
2021/06/13 04:59:29;;;;;;;1.35;1.17;;;23.20;50.30;;;26.82;34.43;102112.13;5119805;27;20047;-50
2021/06/13 05:01:54;;;;;;;1.00;0.90;;;23.20;50.30;;;26.81;34.61;102105.88;5154705;27;20100;-50
2021/06/13 05:04:20;;;;;;;1.38;1.00;;;23.20;50.30;;;26.78;34.39;102095.34;5154658;27;20943;-48
2021/06/13 05:06:46;;;;;;;1.73;1.15;;;23.20;50.30;;;26.77;34.50;102097.19;5136515;27;20074;-51
2021/06/13 05:09:13;;;;;;;1.45;1.08;;;23.20;50.20;;;26.80;34.56;102098.81;5154678;27;21088;-49
2021/06/13 05:11:39;;;;;;;1.33;1.17;;;23.20;50.20;;;26.79;34.50;102097.94;5154563;27;20042;-49
2021/06/13 05:14:06;;;;;;;1.25;1.15;;;23.20;50.20;;;26.85;34.56;102096.69;5154527;27;20492;-48
2021/06/13 05:16:31;;;;;;;1.42;1.20;;;23.20;50.10;;;26.88;34.40;102101.84;5136024;27;20045;-49
2021/06/13 05:18:57;;;;;;;1.85;1.35;;;23.30;50.10;;;26.87;34.37;102094.75;5154164;27;20478;-48
2021/06/13 05:21:23;;;;;;;1.48;1.17;;;23.30;50.00;;;26.88;34.25;102103.63;5154401;27;20099;-49
2021/06/13 05:23:50;;;;;;;1.20;1.00;;;23.30;50.10;;;26.88;34.37;102093.78;5155008;27;20046;-51
2021/06/13 05:26:17;;;;;;;1.27;0.90;;;23.30;50.00;;;26.91;34.23;102096.25;5154419;27;20042;-48
2021/06/13 05:28:44;;;;;;;0.93;0.90;;;23.30;50.00;;;26.85;34.22;102085.06;5154211;27;20042;-50
2021/06/13 05:31:11;;;;;;;1.20;1.10;;;23.30;50.00;;;26.94;34.34;102100.56;5154319;27;20047;-50
2021/06/13 05:33:37;;;;;;;1.70;1.10;;;23.30;49.90;;;26.93;34.21;102098.81;5134000;27;20091;-52
2021/06/13 05:36:03;;;;;;;1.15;1.05;;;23.30;49.90;;;26.95;34.24;102104.97;5154236;27;20445;-48
2021/06/13 05:38:29;;;;;;;1.80;1.40;;;23.30;49.90;;;26.92;34.22;102083.69;5153866;27;20061;-50
2021/06/13 05:40:55;;;;;;;1.48;1.20;;;23.30;49.90;;;26.94;34.15;102096.03;5154531;27;20094;-46
2021/06/13 05:43:21;;;;;;;1.40;1.00;;;23.30;49.90;;;26.92;34.13;102092.59;5134544;27;20047;-49
2021/06/13 05:45:47;;;;;;;1.45;1.20;;;23.30;49.90;;;26.91;34.13;102104.28;5154573;27;20046;-45
2021/06/13 05:48:13;;;;;;;1.65;1.13;;;23.30;49.90;;;26.90;34.13;102093.69;5136161;27;20154;-49
2021/06/13 05:50:39;;;;;;;2.67;1.48;;;23.30;49.90;;;26.92;34.10;102102.47;5154141;27;20053;-51
2021/06/13 05:53:07;;;;;;;1.17;0.85;;;23.30;49.90;;;26.92;34.22;102106.03;5154154;27;20403;-50
2021/06/13 05:55:34;;;;;;;1.92;1.40;;;23.30;49.90;;;26.91;34.12;102112.34;5153937;27;20043;-49
2021/06/13 05:58:00;;;;;;;1.27;1.00;;;23.30;49.90;;;26.89;34.22;102110.75;5134836;27;20047;-46
2021/06/13 06:00:33;;;;;;;1.15;1.02;;;23.30;49.90;;;26.90;34.16;102113.31;5153924;27;20046;-48
2021/06/13 06:02:59;;;;;;;1.88;1.23;;;23.30;49.90;;;26.93;34.12;102114.91;5153999;27;20484;-47
2021/06/13 06:05:25;;;;;;;1.80;1.25;;;23.30;49.80;;;26.93;34.24;102126.53;5154408;27;20054;-50
2021/06/13 06:07:52;;;;;;;1.48;1.20;;;23.30;49.80;;;26.93;34.11;102133.72;5153863;27;20368;-52
2021/06/13 06:10:20;;;;;;;1.13;0.98;;;23.30;49.80;;;26.94;33.92;102138.97;5154105;27;20051;-48
2021/06/13 06:12:46;;;;;;;1.40;1.10;;;23.30;49.80;;;26.93;34.05;102131.91;5153869;27;20415;-47
2021/06/13 06:15:15;;;;;;;2.00;1.20;;;23.30;49.80;;;26.92;34.16;102127.50;5154276;27;20043;-46
2021/06/13 06:17:42;;;;;;;1.48;1.33;;;23.30;49.70;;;26.92;34.19;102132.84;5153756;27;20039;-50
2021/06/13 06:20:11;;;;;;;1.50;0.93;;;23.30;49.70;;;27.00;34.15;102145.78;5153724;27;20039;-50
2021/06/13 06:22:37;;;;;;;1.38;1.17;;;23.30;49.60;;;26.98;34.06;102136.94;5153496;27;20050;-48
2021/06/13 06:25:07;;;;;;;1.42;1.10;;;23.40;49.60;;;27.05;33.81;102151.69;5154230;27;20054;-52
2021/06/13 06:27:33;;;;;;;1.50;1.27;;;23.40;49.60;;;27.10;33.85;102152.22;5153629;27;20047;-47
2021/06/13 06:29:59;;;;;;;1.60;1.20;;;23.50;49.50;;;27.07;33.87;102144.38;5153631;27;20054;-45
2021/06/13 06:32:25;;;;;;;1.10;1.00;;;23.50;49.40;;;27.13;33.96;102156.50;5153639;27;20130;-52
2021/06/13 06:34:50;;;;;;;1.60;1.30;;;23.50;49.40;;;27.17;33.88;102161.56;5135797;27;20047;-52
2021/06/13 06:37:16;;;;;;;1.35;1.15;;;23.50;49.30;;;27.21;33.86;102148.81;5157462;27;20497;-50
2021/06/13 06:39:42;;;;;;;1.20;1.10;;;23.60;49.30;;;27.28;33.75;102151.91;5157085;27;20051;-47
2021/06/13 06:42:08;;;;;;;1.42;1.10;;;23.70;49.30;;;27.32;33.63;102145.44;5157349;27;20111;-45
2021/06/13 06:44:33;;;;;;;1.40;1.20;;;23.70;49.00;;;27.41;33.43;102155.50;5156995;27;20129;-48
2021/06/13 06:47:02;;;;;;;1.30;1.20;;;23.80;48.90;;;27.52;33.43;102160.16;5156719;27;20050;-48
2021/06/13 06:49:31;;;;;;;1.63;1.40;;;23.90;48.60;;;27.58;33.09;102165.06;5157003;27;20049;-50
2021/06/13 06:51:59;;;;;;;2.05;1.20;;;23.90;48.50;;;27.64;33.00;102171.88;5156796;27;20458;-47
2021/06/13 06:54:25;;;;;;;1.27;1.17;;;24.00;48.40;;;27.66;33.20;102162.72;5156796;27;20125;-48
2021/06/13 06:56:51;;;;;;;1.13;0.93;;;24.00;48.30;;;27.69;33.15;102167.88;5157096;27;20038;-46
2021/06/13 06:59:17;;;;;;;1.60;1.48;;;23.90;48.30;;;27.69;32.94;102181.31;5156955;27;20043;-48
2021/06/13 07:01:43;;;;;;;1.45;1.10;;;23.90;48.30;;;27.67;32.77;102182.41;5138193;27;20039;-48
2021/06/13 07:04:09;;;;;;;1.10;1.00;;;23.90;48.30;;;27.64;32.66;102185.31;5137700;27;20042;-48
2021/06/13 07:06:36;;;;;;;1.38;1.00;;;23.90;48.40;;;27.63;33.04;102197.88;5137616;27;20369;-48
2021/06/13 07:09:02;;;;;;;1.60;1.08;;;23.90;48.50;;;27.62;33.04;102201.53;5156912;27;20441;-46
2021/06/13 07:11:28;;;;;;;1.42;1.00;;;23.80;48.50;;;27.61;32.78;102197.13;5156688;27;20116;-45
2021/06/13 07:13:54;;;;;;;1.58;1.10;;;23.80;48.50;;;27.61;33.00;102201.63;5156461;27;20050;-49
2021/06/13 07:16:20;;;;;;;2.17;1.30;;;23.80;48.50;;;27.58;33.10;102202.69;5156511;27;20043;-45
2021/06/13 07:18:48;;;;;;;1.08;0.95;;;23.80;48.50;;;27.58;33.01;102210.75;5156974;27;20046;-45
2021/06/13 07:21:16;;;;;;;1.77;1.33;;;23.80;48.50;;;27.58;33.01;102216.13;5157008;27;20104;-46
2021/06/13 07:23:42;;;;;;;1.08;0.93;;;23.80;48.50;;;27.58;33.20;102209.91;5138158;27;20051;-46
2021/06/13 07:26:08;;;;;;;1.75;1.30;;;23.80;48.50;;;27.56;33.03;102210.00;5156590;27;20047;-45
2021/06/13 07:28:34;;;;;;;1.55;1.20;;;23.90;49.10;;;27.58;33.04;102212.59;5156111;27;20054;-50
2021/06/13 07:31:03;;;;;;;1.20;1.10;;;23.90;48.50;;;27.62;32.87;102230.22;5156221;27;20046;-46
2021/06/13 07:33:29;;;;;;;1.60;1.20;;;23.90;48.40;;;27.59;33.07;102222.38;5156081;27;20483;-46
2021/06/13 07:35:56;;;;;;;1.23;1.13;;;23.80;48.40;;;27.57;32.83;102221.63;5156474;27;20056;-53
2021/06/13 07:38:22;;;;;;;1.73;1.30;;;23.80;48.50;;;27.54;32.93;102220.84;5156486;27;20050;-54
2021/06/13 07:40:49;;;;;;;1.60;1.05;;;23.80;48.50;;;27.53;32.92;102224.53;5156409;27;20486;-48
2021/06/13 07:43:15;;;;;;;1.20;1.10;;;23.80;48.50;;;27.53;32.76;102231.72;5137624;27;20046;-48
2021/06/13 07:45:42;;;;;;;1.95;1.40;;;23.80;48.50;;;27.51;33.06;102233.66;5156058;27;20050;-51
2021/06/13 07:48:09;;;;;;;1.42;1.20;;;23.80;48.50;;;27.54;33.02;102236.97;5155193;27;20407;-51
2021/06/13 07:50:35;;;;;;;2.25;1.60;;;23.80;48.50;;;27.55;32.75;102237.84;5156190;27;20053;-50
2021/06/13 07:53:02;;;;;;;1.38;1.27;;;23.80;48.50;;;27.53;33.04;102229.00;5156184;27;20403;-49
2021/06/13 07:55:28;;;;;;;1.10;1.00;;;23.80;48.40;;;27.56;32.80;102241.41;5156281;27;20053;-51
2021/06/13 07:57:54;;;;;;;1.30;1.15;;;23.90;48.40;;;27.60;32.98;102240.19;5155684;27;20209;-51
2021/06/13 08:00:23;;;;;;;1.17;1.08;;;23.90;48.30;;;27.60;32.97;102241.09;5155704;27;20483;-49
2021/06/13 08:02:49;;;;;;;1.58;1.30;;;23.90;48.30;;;27.71;32.65;102246.56;5137065;27;20138;-51
2021/06/13 08:05:17;;;;;;;1.13;1.02;;;24.00;48.20;;;27.76;32.87;102248.09;5156036;27;20483;-49
2021/06/13 08:07:43;;;;;;;1.08;0.98;;;24.00;48.00;;;27.81;32.69;102230.66;5156003;27;20134;-51
2021/06/13 08:10:10;;;;;;;1.15;1.05;;;24.10;48.00;;;27.90;32.48;102246.16;5155720;27;20051;-52
2021/06/13 08:12:38;;;;;;;1.95;1.40;;;24.20;47.80;;;27.98;32.63;102244.78;5155691;27;20038;-48
2021/06/13 08:15:06;;;;;;;1.20;1.10;;;24.20;48.20;;;28.04;32.58;102255.09;5137445;27;20086;-53
2021/06/13 08:17:32;;;;;;;2.65;1.27;;;24.30;47.60;;;28.13;32.45;102258.97;5155357;27;20055;-48
2021/06/13 08:19:57;;;;;;;1.15;1.00;;;24.40;47.40;;;28.19;31.90;102258.53;5155455;27;20404;-49
2021/06/13 08:22:23;;;;;;;1.00;0.90;;;24.40;47.30;;;28.18;32.16;102260.34;5136792;27;20047;-47
2021/06/13 08:24:49;;;;;;;1.48;1.38;;;24.40;47.20;;;28.19;31.79;102255.84;5155577;27;20054;-47
2021/06/13 08:27:15;;;;;;;1.25;1.15;;;24.40;47.20;;;28.24;31.82;102261.75;5155398;27;20051;-49
2021/06/13 08:29:42;;;;;;;1.27;1.13;;;24.40;47.20;;;28.25;31.76;102258.97;5155389;27;20465;-50
2021/06/13 08:32:08;;;;;;;1.65;1.48;;;24.40;47.10;;;28.27;32.10;102272.31;5155538;27;20047;-46
2021/06/13 08:34:34;;;;;;;1.20;1.10;;;24.40;47.10;;;28.23;31.83;102276.16;5155201;27;20079;-46
2021/06/13 08:37:01;;;;;;;1.70;1.00;;;24.40;47.10;;;28.22;32.05;102282.53;5155209;27;20051;-51
2021/06/13 08:39:27;;;;;;;1.40;1.23;;;24.40;47.70;;;28.19;31.75;102282.75;5155066;27;20081;-51
2021/06/13 08:41:52;;;;;;;1.60;1.40;;;24.30;47.20;;;28.20;31.84;102296.09;5155122;27;20077;-48
2021/06/13 08:44:18;;;;;;;1.48;1.10;;;24.40;47.30;;;28.17;31.79;102279.31;5155614;27;20046;-45
2021/06/13 08:46:44;;;;;;;1.63;1.10;;;24.40;47.20;;;28.22;31.70;102288.75;5155314;27;20049;-49
2021/06/13 08:49:10;;;;;;;2.13;1.17;;;24.40;47.10;;;28.25;31.78;102287.66;5155024;27;20505;-50
2021/06/13 08:51:37;;;;;;;1.33;1.20;;;24.40;47.10;;;28.28;31.95;102296.41;5154879;27;20043;-52
2021/06/13 08:54:04;;;;;;;1.30;1.20;;;24.40;47.00;;;28.27;31.66;102294.69;5154898;27;20129;-49
2021/06/13 08:56:30;;;;;;;1.88;1.40;;;24.40;47.00;;;28.26;31.89;102301.00;5154886;27;20078;-48
2021/06/13 08:58:56;;;;;;;1.92;1.30;;;24.40;47.00;;;28.22;31.88;102287.91;5154418;27;20129;-50
2021/06/13 09:01:22;;;;;;;0.98;0.90;;;24.40;47.00;;;28.18;31.71;102297.16;5136009;27;20047;-49
2021/06/13 09:03:48;;;;;;;2.28;1.40;;;24.30;47.10;;;28.14;31.78;102309.94;5135121;27;20492;-51
2021/06/13 09:06:14;;;;;;;1.50;1.00;;;24.30;47.20;;;28.08;31.81;102310.38;5155323;27;20051;-51
2021/06/13 09:08:42;;;;;;;2.28;1.52;;;24.30;47.30;;;28.04;31.76;102312.41;5154648;27;20057;-48
2021/06/13 09:11:24;;;;;;;1.30;1.15;;;24.20;47.30;;;28.05;31.95;102313.28;5153913;27;20047;-48
2021/06/13 09:13:49;;;;;;;;;;;24.30;47.30;;;28.24;31.79;102320.94;5136553;27;20050;-49
2021/06/13 09:16:16;;;;;;;1.33;1.17;;;24.30;47.30;;;28.17;32.08;102323.19;5135748;27;19919;-53
2021/06/13 09:18:47;;;;;;;1.30;1.20;;;24.30;47.20;;;28.14;32.04;102318.03;5154840;27;20042;-47
2021/06/13 09:21:32;;;;;;;2.28;1.30;;;24.30;47.20;;;28.16;32.08;102320.59;5155003;27;20042;-48
2021/06/13 09:23:58;;;;;;;1.85;1.30;;;24.40;47.20;;;28.18;31.69;102318.66;5154794;27;20042;-48
2021/06/13 09:26:27;;;;;;;1.65;1.35;;;24.40;47.10;;;28.16;32.11;102316.06;5154762;27;20045;-49
2021/06/13 09:28:57;;;;;;;1.58;1.30;;;24.40;47.10;;;28.18;31.79;102324.03;5154371;27;20051;-51
2021/06/13 09:31:30;;;;;;;1.27;1.15;;;24.40;47.10;;;28.18;31.76;102324.88;5154557;27;20055;-50
2021/06/13 09:33:59;;;;;;;1.40;1.17;;;24.40;47.10;;;28.22;31.92;102326.41;5154672;27;20046;-47
2021/06/13 09:36:29;;;;;;;1.83;1.38;;;24.40;47.00;;;28.25;31.89;102322.63;5154784;27;20051;-49
2021/06/13 09:39:04;;;;;;;1.52;1.27;;;24.50;47.00;;;28.27;31.54;102320.72;5154318;27;20087;-46
2021/06/13 09:41:31;;;;;;;2.88;1.48;;;24.50;46.90;;;28.30;31.61;102328.56;5154565;27;20042;-48
2021/06/13 09:44:06;;;;;;;1.20;1.10;;;24.50;46.90;;;28.29;31.84;102326.84;5135666;27;20061;-50
2021/06/13 09:46:38;;;;;;;1.40;1.30;;;24.50;46.80;;;28.31;31.70;102335.66;5154187;27;20054;-48
2021/06/13 09:49:16;;;;;;;1.52;1.20;;;24.50;46.80;;;28.32;31.76;102331.13;5154247;27;20043;-49
2021/06/13 09:51:48;;;;;;;1.98;1.30;;;24.50;46.80;;;28.35;31.47;102341.69;5154431;27;20049;-51
2021/06/13 09:54:24;;;;;;;1.35;1.20;;;24.60;46.80;;;28.36;31.79;102344.25;5154353;27;20043;-49
2021/06/13 09:56:50;;;;;;;1.52;1.23;;;24.60;46.70;;;28.35;31.41;102337.19;5154121;27;20050;-52
2021/06/13 09:59:25;;;;;;;1.95;1.40;;;24.60;46.70;;;28.39;31.78;102335.13;5154388;27;20400;-53
2021/06/13 10:01:57;;;;;;;1.67;1.30;;;24.60;46.60;;;28.44;31.32;102328.44;5154086;27;20113;-46
2021/06/13 10:04:32;;;;;;;1.65;1.40;;;24.60;46.50;;;28.45;31.68;102335.56;5153877;27;20042;-52
2021/06/13 10:07:02;;;;;;;1.70;1.38;;;24.60;46.50;;;28.44;31.23;102335.66;5154228;27;20050;-48
2021/06/13 10:09:37;;;;;;;1.40;1.27;;;24.60;46.50;;;28.45;31.25;102343.63;5154336;27;20061;-48
2021/06/13 10:12:09;;;;;;;2.65;1.45;;;24.60;46.50;;;28.46;31.25;102348.03;5157610;27;20035;-53
2021/06/13 10:14:35;;;;;;;1.40;1.20;;;24.60;46.50;;;28.50;31.31;102342.41;5157557;27;20054;-48
2021/06/13 10:17:01;;;;;;;2.35;1.30;;;24.70;46.40;;;28.50;31.27;102343.31;5157481;27;20498;-47
2021/06/13 10:19:41;;;;;;;2.28;1.30;;;24.70;46.40;;;28.45;31.48;102340.94;5157177;27;20042;-49
2021/06/13 10:22:09;;;;;;;1.65;1.42;;;24.70;46.30;;;28.47;31.46;102340.84;5157498;27;20038;-52